PWSweather.com
Personal Weather Stations
Station Observations
GRANG4
Grangeville, ID 83530

Grangeville, ID 83530

Lat: 45.922, Lon: -116.126

Elevation: 3460

Station Type: Davis Vantage Pro 2 wireless

High Low Average
Temperature 54.9°F12.7°C 33.5°F0.8°C 42.6°F5.9°C
Dew Point 36.3°F2.4°C 26.0°F-3.3°C 30.7°F-0.7°C
Winds 6.7 mph 10.8 kmh Calm Calm 2.0 mph SE3.2 kmh SE
Wind Gusts 10.0 mph16.1 kmh -- 5.0 mph8.0 kmh
Humidity 79% 33% 65%
Pressure 29.83 in1010.2 mb 29.71 in1006.1 mb -
Precipitation 0.00 in0.0 mm - -
Hour Temp Dew Point Humidity Winds Wind Gusts Pressure Precip Precip Rate Daily Precip Total
12:00 AM 36.1°F2.3°C 28.3°F-2.1°C 73% Calm Calm 3.0 mph4.8 kmh 29.80 in1009.1 mb 0.00 in0.0 mm 0.00 in/hr0.0 mm/hr 0.00 in0.0 mm
12:05 AM 36.3°F2.4°C 29.2°F-1.6°C 75% 1.4 mph SE2.3 kmh SE 3.0 mph4.8 kmh 29.80 in1009.1 mb 0.00 in0.0 mm 0.00 in/hr0.0 mm/hr 0.00 in0.0 mm
12:10 AM 36.3°F2.4°C 29.2°F-1.6°C 75% 2.9 mph WNW4.7 kmh WNW 4.0 mph6.4 kmh 29.81 in1009.5 mb 0.00 in0.0 mm 0.00 in/hr0.0 mm/hr 0.00 in0.0 mm
12:15 AM 36.2°F2.3°C 28.8°F-1.8°C 74% 2.9 mph W4.7 kmh W 4.0 mph6.4 kmh 29.81 in1009.5 mb 0.00 in0.0 mm 0.00 in/hr0.0 mm/hr 0.00 in0.0 mm
12:20 AM 36.0°F2.2°C 28.9°F-1.7°C 75% 3.0 mph WNW4.8 kmh WNW 5.0 mph8.0 kmh 29.81 in1009.5 mb 0.00 in0.0 mm 0.00 in/hr0.0 mm/hr 0.00 in0.0 mm
12:25 AM 35.9°F2.2°C 28.8°F-1.8°C 75% 3.3 mph W5.3 kmh W 5.0 mph8.0 kmh 29.81 in1009.5 mb 0.00 in0.0 mm 0.00 in/hr0.0 mm/hr 0.00 in0.0 mm
12:30 AM 35.9°F2.2°C 28.5°F-1.9°C 74% 1.7 mph W2.7 kmh W 4.0 mph6.4 kmh 29.80 in1009.1 mb 0.00 in0.0 mm 0.00 in/hr0.0 mm/hr 0.00 in0.0 mm
12:35 AM 35.8°F2.1°C 28.7°F-1.8°C 75% 3.6 mph SW5.8 kmh SW 4.0 mph6.4 kmh 29.81 in1009.5 mb 0.00 in0.0 mm 0.00 in/hr0.0 mm/hr 0.00 in0.0 mm
12:40 AM 35.7°F2.1°C 28.6°F-1.9°C 75% 2.3 mph WSW3.7 kmh WSW 4.0 mph6.4 kmh 29.81 in1009.5 mb 0.00 in0.0 mm 0.00 in/hr0.0 mm/hr 0.00 in0.0 mm
12:45 AM 35.8°F2.1°C 29.3°F-1.5°C 77% 4.1 mph W6.6 kmh W 6.0 mph9.7 kmh 29.81 in1009.5 mb 0.00 in0.0 mm 0.00 in/hr0.0 mm/hr 0.00 in0.0 mm
12:50 AM 35.8°F2.1°C 29.3°F-1.5°C 77% 4.1 mph WSW6.6 kmh WSW 6.0 mph9.7 kmh 29.81 in1009.5 mb 0.00 in0.0 mm 0.00 in/hr0.0 mm/hr 0.00 in0.0 mm
12:55 AM 35.7°F2.1°C 29.2°F-1.6°C 77% 2.6 mph W4.2 kmh W 6.0 mph9.7 kmh 29.81 in1009.5 mb 0.00 in0.0 mm 0.00 in/hr0.0 mm/hr 0.00 in0.0 mm
01:00 AM 35.6°F2.0°C 28.8°F-1.8°C 76% 1.9 mph W3.1 kmh W 4.0 mph6.4 kmh 29.81 in1009.5 mb 0.00 in0.0 mm 0.00 in/hr0.0 mm/hr 0.00 in0.0 mm
01:05 AM 35.5°F1.9°C 29.0°F-1.7°C 77% 2.1 mph WSW3.4 kmh WSW 5.0 mph8.0 kmh 29.81 in1009.5 mb 0.00 in0.0 mm 0.00 in/hr0.0 mm/hr 0.00 in0.0 mm
01:10 AM 35.3°F1.8°C 28.8°F-1.8°C 77% 1.0 mph WSW1.6 kmh WSW 5.0 mph8.0 kmh 29.81 in1009.5 mb 0.00 in0.0 mm 0.00 in/hr0.0 mm/hr 0.00 in0.0 mm
01:15 AM 35.1°F1.7°C 28.3°F-2.1°C 76% 2.7 mph WSW4.3 kmh WSW 4.0 mph6.4 kmh 29.81 in1009.5 mb 0.00 in0.0 mm 0.00 in/hr0.0 mm/hr 0.00 in0.0 mm
01:20 AM 35.0°F1.7°C 29.2°F-1.6°C 79% 1.3 mph WSW2.1 kmh WSW 4.0 mph6.4 kmh 29.81 in1009.5 mb 0.00 in0.0 mm 0.00 in/hr0.0 mm/hr 0.00 in0.0 mm
01:25 AM 34.9°F1.6°C 28.8°F-1.8°C 78% 1.0 mph WSW1.6 kmh WSW 3.0 mph4.8 kmh 29.81 in1009.5 mb 0.00 in0.0 mm 0.00 in/hr0.0 mm/hr 0.00 in0.0 mm
01:30 AM 34.9°F1.6°C 28.5°F-1.9°C 77% 1.9 mph WSW3.1 kmh WSW 3.0 mph4.8 kmh 29.81 in1009.5 mb 0.00 in0.0 mm 0.00 in/hr0.0 mm/hr 0.00 in0.0 mm
01:35 AM 34.8°F1.6°C 28.0°F-2.2°C 76% 1.8 mph WSW2.9 kmh WSW 3.0 mph4.8 kmh 29.81 in1009.5 mb 0.00 in0.0 mm 0.00 in/hr0.0 mm/hr 0.00 in0.0 mm
01:40 AM 34.7°F1.5°C 27.6°F-2.4°C 75% 3.6 mph WSW5.8 kmh WSW 4.0 mph6.4 kmh 29.81 in1009.5 mb 0.00 in0.0 mm 0.00 in/hr0.0 mm/hr 0.00 in0.0 mm
01:46 AM 34.6°F1.4°C 27.5°F-2.5°C 75% 1.0 mph WSW1.6 kmh WSW 4.0 mph6.4 kmh 29.81 in1009.5 mb 0.00 in0.0 mm 0.00 in/hr0.0 mm/hr 0.00 in0.0 mm
01:51 AM 34.4°F1.3°C 27.0°F-2.8°C 74% 1.3 mph WSW2.1 kmh WSW 3.0 mph4.8 kmh 29.81 in1009.5 mb 0.00 in0.0 mm 0.00 in/hr0.0 mm/hr 0.00 in0.0 mm
01:56 AM 34.2°F1.2°C 27.1°F-2.7°C 75% 1.0 mph WSW1.6 kmh WSW 4.0 mph6.4 kmh 29.82 in1009.8 mb 0.00 in0.0 mm 0.00 in/hr0.0 mm/hr 0.00 in0.0 mm
02:01 AM 34.0°F1.1°C 26.6°F-3.0°C 74% 1.4 mph WSW2.3 kmh WSW 4.0 mph6.4 kmh 29.82 in1009.8 mb 0.00 in0.0 mm 0.00 in/hr0.0 mm/hr 0.00 in0.0 mm
02:06 AM 33.9°F1.1°C 26.5°F-3.1°C 74% 2.3 mph WSW3.7 kmh WSW 3.0 mph4.8 kmh 29.82 in1009.8 mb 0.00 in0.0 mm 0.00 in/hr0.0 mm/hr 0.00 in0.0 mm
02:11 AM 33.8°F1.0°C 26.8°F-2.9°C 75% 1.2 mph WSW1.9 kmh WSW 3.0 mph4.8 kmh 29.82 in1009.8 mb 0.00 in0.0 mm 0.00 in/hr0.0 mm/hr 0.00 in0.0 mm
02:16 AM 33.8°F1.0°C 26.8°F-2.9°C 75% Calm Calm 3.0 mph4.8 kmh 29.82 in1009.8 mb 0.00 in0.0 mm 0.00 in/hr0.0 mm/hr 0.00 in0.0 mm
02:21 AM 33.6°F0.9°C 26.6°F-3.0°C 75% 1.6 mph WSW2.6 kmh WSW 3.0 mph4.8 kmh 29.82 in1009.8 mb 0.00 in0.0 mm 0.00 in/hr0.0 mm/hr 0.00 in0.0 mm
02:26 AM 33.7°F0.9°C 26.7°F-2.9°C 75% 2.2 mph NE3.5 kmh NE 4.0 mph6.4 kmh 29.82 in1009.8 mb 0.00 in0.0 mm 0.00 in/hr0.0 mm/hr 0.00 in0.0 mm
02:31 AM 33.7°F0.9°C 26.7°F-2.9°C 75% 3.1 mph SE5.0 kmh SE 6.0 mph9.7 kmh 29.81 in1009.5 mb 0.00 in0.0 mm 0.00 in/hr0.0 mm/hr 0.00 in0.0 mm
02:36 AM 33.8°F1.0°C 27.1°F-2.7°C 76% 2.2 mph NNW3.5 kmh NNW 6.0 mph9.7 kmh 29.81 in1009.5 mb 0.00 in0.0 mm 0.00 in/hr0.0 mm/hr 0.00 in0.0 mm
02:41 AM 34.1°F1.2°C 27.4°F-2.6°C 76% 2.2 mph ENE3.5 kmh ENE 6.0 mph9.7 kmh 29.82 in1009.8 mb 0.00 in0.0 mm 0.00 in/hr0.0 mm/hr 0.00 in0.0 mm
02:46 AM 34.3°F1.3°C 27.6°F-2.4°C 76% 1.6 mph SE2.6 kmh SE 4.0 mph6.4 kmh 29.82 in1009.8 mb 0.00 in0.0 mm 0.00 in/hr0.0 mm/hr 0.00 in0.0 mm
02:51 AM 34.7°F1.5°C 27.9°F-2.3°C 76% 2.4 mph NNE3.9 kmh NNE 4.0 mph6.4 kmh 29.81 in1009.5 mb 0.00 in0.0 mm 0.00 in/hr0.0 mm/hr 0.00 in0.0 mm
02:56 AM 35.0°F1.7°C 28.2°F-2.1°C 76% 1.0 mph NW1.6 kmh NW 5.0 mph8.0 kmh 29.81 in1009.5 mb 0.00 in0.0 mm 0.00 in/hr0.0 mm/hr 0.00 in0.0 mm
03:01 AM 35.4°F1.9°C 28.3°F-2.1°C 75% Calm Calm 5.0 mph8.0 kmh 29.82 in1009.8 mb 0.00 in0.0 mm 0.00 in/hr0.0 mm/hr 0.00 in0.0 mm
03:06 AM 35.5°F1.9°C 28.4°F-2.0°C 75% 1.0 mph NW1.6 kmh NW 2.0 mph3.2 kmh 29.82 in1009.8 mb 0.00 in0.0 mm 0.00 in/hr0.0 mm/hr 0.00 in0.0 mm
03:11 AM 35.5°F1.9°C 28.4°F-2.0°C 75% 1.8 mph NW2.9 kmh NW 2.0 mph3.2 kmh 29.82 in1009.8 mb 0.00 in0.0 mm 0.00 in/hr0.0 mm/hr 0.00 in0.0 mm
03:16 AM 35.4°F1.9°C 28.3°F-2.1°C 75% 2.3 mph NW3.7 kmh NW 4.0 mph6.4 kmh 29.82 in1009.8 mb 0.00 in0.0 mm 0.00 in/hr0.0 mm/hr 0.00 in0.0 mm
03:21 AM 35.4°F1.9°C 28.6°F-1.9°C 76% 2.5 mph NW4.0 kmh NW 4.0 mph6.4 kmh 29.82 in1009.8 mb 0.00 in0.0 mm 0.00 in/hr0.0 mm/hr 0.00 in0.0 mm
03:26 AM 35.4°F1.9°C 28.6°F-1.9°C 76% 1.5 mph NW2.4 kmh NW 3.0 mph4.8 kmh 29.82 in1009.8 mb 0.00 in0.0 mm 0.00 in/hr0.0 mm/hr 0.00 in0.0 mm
03:31 AM 35.3°F1.8°C 28.2°F-2.1°C 75% 1.8 mph NW2.9 kmh NW 3.0 mph4.8 kmh 29.82 in1009.8 mb 0.00 in0.0 mm 0.00 in/hr0.0 mm/hr 0.00 in0.0 mm
03:36 AM 35.2°F1.8°C 28.1°F-2.2°C 75% 1.1 mph NW1.8 kmh NW 3.0 mph4.8 kmh 29.82 in1009.8 mb 0.00 in0.0 mm 0.00 in/hr0.0 mm/hr 0.00 in0.0 mm
03:41 AM 35.3°F1.8°C 28.5°F-1.9°C 76% 1.7 mph NW2.7 kmh NW 3.0 mph4.8 kmh 29.82 in1009.8 mb 0.00 in0.0 mm 0.00 in/hr0.0 mm/hr 0.00 in0.0 mm
03:46 AM 35.3°F1.8°C 28.5°F-1.9°C 76% Calm Calm 3.0 mph4.8 kmh 29.82 in1009.8 mb 0.00 in0.0 mm 0.00 in/hr0.0 mm/hr 0.00 in0.0 mm
03:51 AM 35.3°F1.8°C 28.8°F-1.8°C 77% 4.0 mph NW6.4 kmh NW 6.0 mph9.7 kmh 29.82 in1009.8 mb 0.00 in0.0 mm 0.00 in/hr0.0 mm/hr 0.00 in0.0 mm
03:56 AM 35.3°F1.8°C 29.5°F-1.4°C 79% 1.5 mph NW2.4 kmh NW 6.0 mph9.7 kmh 29.82 in1009.8 mb 0.00 in0.0 mm 0.00 in/hr0.0 mm/hr 0.00 in0.0 mm
04:01 AM 35.3°F1.8°C 29.2°F-1.6°C 78% Calm Calm 5.0 mph8.0 kmh 29.82 in1009.8 mb 0.00 in0.0 mm 0.00 in/hr0.0 mm/hr 0.00 in0.0 mm
04:06 AM 35.2°F1.8°C 29.1°F-1.6°C 78% Calm Calm -- 29.83 in1010.2 mb 0.00 in0.0 mm 0.00 in/hr0.0 mm/hr 0.00 in0.0 mm
04:11 AM 35.1°F1.7°C 28.6°F-1.9°C 77% Calm Calm -- 29.82 in1009.8 mb 0.00 in0.0 mm 0.00 in/hr0.0 mm/hr 0.00 in0.0 mm
04:16 AM 35.1°F1.7°C 29.0°F-1.7°C 78% 1.4 mph NW2.3 kmh NW 2.0 mph3.2 kmh 29.83 in1010.2 mb 0.00 in0.0 mm 0.00 in/hr0.0 mm/hr 0.00 in0.0 mm
04:21 AM 35.1°F1.7°C 29.3°F-1.5°C 79% 1.3 mph NW2.1 kmh NW 2.0 mph3.2 kmh 29.83 in1010.2 mb 0.00 in0.0 mm 0.00 in/hr0.0 mm/hr 0.00 in0.0 mm
04:27 AM 35.0°F1.7°C 29.2°F-1.6°C 79% 1.4 mph NW2.3 kmh NW 3.0 mph4.8 kmh 29.82 in1009.8 mb 0.00 in0.0 mm 0.00 in/hr0.0 mm/hr 0.00 in0.0 mm
04:32 AM 34.9°F1.6°C 28.8°F-1.8°C 78% 1.2 mph NW1.9 kmh NW 3.0 mph4.8 kmh 29.82 in1009.8 mb 0.00 in0.0 mm 0.00 in/hr0.0 mm/hr 0.00 in0.0 mm
04:36 AM 34.9°F1.6°C 28.5°F-1.9°C 77% Calm Calm 3.0 mph4.8 kmh 29.82 in1009.8 mb 0.00 in0.0 mm 0.00 in/hr0.0 mm/hr 0.00 in0.0 mm
04:41 AM 34.9°F1.6°C 28.5°F-1.9°C 77% Calm Calm -- 29.82 in1009.8 mb 0.00 in0.0 mm 0.00 in/hr0.0 mm/hr 0.00 in0.0 mm
04:47 AM 34.8°F1.6°C 28.4°F-2.0°C 77% 1.7 mph NW2.7 kmh NW 3.0 mph4.8 kmh 29.82 in1009.8 mb 0.00 in0.0 mm 0.00 in/hr0.0 mm/hr 0.00 in0.0 mm
04:52 AM 34.7°F1.5°C 28.3°F-2.1°C 77% Calm Calm 3.0 mph4.8 kmh 29.82 in1009.8 mb 0.00 in0.0 mm 0.00 in/hr0.0 mm/hr 0.00 in0.0 mm
04:57 AM 34.5°F1.4°C 27.8°F-2.3°C 76% Calm Calm -- 29.82 in1009.8 mb 0.00 in0.0 mm 0.00 in/hr0.0 mm/hr 0.00 in0.0 mm
05:02 AM 34.4°F1.3°C 28.0°F-2.2°C 77% 2.3 mph NE3.7 kmh NE 4.0 mph6.4 kmh 29.82 in1009.8 mb 0.00 in0.0 mm 0.00 in/hr0.0 mm/hr 0.00 in0.0 mm
05:07 AM 34.4°F1.3°C 28.0°F-2.2°C 77% 1.8 mph NE2.9 kmh NE 4.0 mph6.4 kmh 29.82 in1009.8 mb 0.00 in0.0 mm 0.00 in/hr0.0 mm/hr 0.00 in0.0 mm
05:12 AM 34.3°F1.3°C 27.9°F-2.3°C 77% 2.5 mph NE4.0 kmh NE 5.0 mph8.0 kmh 29.82 in1009.8 mb 0.00 in0.0 mm 0.00 in/hr0.0 mm/hr 0.00 in0.0 mm
05:17 AM 34.2°F1.2°C 27.5°F-2.5°C 76% 1.3 mph NE2.1 kmh NE 5.0 mph8.0 kmh 29.82 in1009.8 mb 0.00 in0.0 mm 0.00 in/hr0.0 mm/hr 0.00 in0.0 mm
05:22 AM 34.0°F1.1°C 27.3°F-2.6°C 76% Calm Calm 3.0 mph4.8 kmh 29.82 in1009.8 mb 0.00 in0.0 mm 0.00 in/hr0.0 mm/hr 0.00 in0.0 mm
05:27 AM 33.7°F0.9°C 27.3°F-2.6°C 77% 1.9 mph NE3.1 kmh NE 3.0 mph4.8 kmh 29.82 in1009.8 mb 0.00 in0.0 mm 0.00 in/hr0.0 mm/hr 0.00 in0.0 mm
05:32 AM 33.6°F0.9°C 26.9°F-2.8°C 76% 1.9 mph E3.1 kmh E 3.0 mph4.8 kmh 29.82 in1009.8 mb 0.00 in0.0 mm 0.00 in/hr0.0 mm/hr 0.00 in0.0 mm
05:37 AM 33.5°F0.8°C 26.8°F-2.9°C 76% 3.0 mph SE4.8 kmh SE 4.0 mph6.4 kmh 29.82 in1009.8 mb 0.00 in0.0 mm 0.00 in/hr0.0 mm/hr 0.00 in0.0 mm
05:42 AM 33.6°F0.9°C 27.2°F-2.7°C 77% 1.5 mph SE2.4 kmh SE 4.0 mph6.4 kmh 29.83 in1010.2 mb 0.00 in0.0 mm 0.00 in/hr0.0 mm/hr 0.00 in0.0 mm
05:47 AM 33.7°F0.9°C 27.3°F-2.6°C 77% 1.0 mph SE1.6 kmh SE 3.0 mph4.8 kmh 29.83 in1010.2 mb 0.00 in0.0 mm 0.00 in/hr0.0 mm/hr 0.00 in0.0 mm
05:52 AM 33.9°F1.1°C 27.5°F-2.5°C 77% Calm Calm 3.0 mph4.8 kmh 29.83 in1010.2 mb 0.00 in0.0 mm 0.00 in/hr0.0 mm/hr 0.00 in0.0 mm
05:57 AM 34.0°F1.1°C 27.3°F-2.6°C 76% Calm Calm 1.0 mph1.6 kmh 29.83 in1010.2 mb 0.00 in0.0 mm 0.00 in/hr0.0 mm/hr 0.00 in0.0 mm
06:02 AM 34.0°F1.1°C 27.6°F-2.4°C 77% 1.7 mph SE2.7 kmh SE 3.0 mph4.8 kmh 29.83 in1010.2 mb 0.00 in0.0 mm 0.00 in/hr0.0 mm/hr 0.00 in0.0 mm
06:07 AM 34.1°F1.2°C 28.0°F-2.2°C 78% 1.6 mph WSW2.6 kmh WSW 3.0 mph4.8 kmh 29.83 in1010.2 mb 0.00 in0.0 mm 0.00 in/hr0.0 mm/hr 0.00 in0.0 mm
06:12 AM 34.0°F1.1°C 27.9°F-2.3°C 78% 1.0 mph WSW1.6 kmh WSW 3.0 mph4.8 kmh 29.83 in1010.2 mb 0.00 in0.0 mm 0.00 in/hr0.0 mm/hr 0.00 in0.0 mm
06:17 AM 34.1°F1.2°C 28.0°F-2.2°C 78% Calm Calm 1.0 mph1.6 kmh 29.83 in1010.2 mb 0.00 in0.0 mm 0.00 in/hr0.0 mm/hr 0.00 in0.0 mm
06:22 AM 34.3°F1.3°C 28.2°F-2.1°C 78% 1.0 mph WSW1.6 kmh WSW 1.0 mph1.6 kmh 29.83 in1010.2 mb 0.00 in0.0 mm 0.00 in/hr0.0 mm/hr 0.00 in0.0 mm
06:27 AM 34.5°F1.4°C 28.4°F-2.0°C 78% 1.5 mph S2.4 kmh S 2.0 mph3.2 kmh 29.82 in1009.8 mb 0.00 in0.0 mm 0.00 in/hr0.0 mm/hr 0.00 in0.0 mm
06:32 AM 34.7°F1.5°C 28.6°F-1.9°C 78% 1.6 mph SE2.6 kmh SE 3.0 mph4.8 kmh 29.82 in1009.8 mb 0.00 in0.0 mm 0.00 in/hr0.0 mm/hr 0.00 in0.0 mm
06:37 AM 34.8°F1.6°C 28.4°F-2.0°C 77% 1.1 mph SE1.8 kmh SE 3.0 mph4.8 kmh 29.82 in1009.8 mb 0.00 in0.0 mm 0.00 in/hr0.0 mm/hr 0.00 in0.0 mm
06:42 AM 35.0°F1.7°C 28.6°F-1.9°C 77% Calm Calm 2.0 mph3.2 kmh 29.82 in1009.8 mb 0.00 in0.0 mm 0.00 in/hr0.0 mm/hr 0.00 in0.0 mm
06:47 AM 35.2°F1.8°C 28.7°F-1.8°C 77% Calm Calm -- 29.82 in1009.8 mb 0.00 in0.0 mm 0.00 in/hr0.0 mm/hr 0.00 in0.0 mm
06:52 AM 35.5°F1.9°C 29.0°F-1.7°C 77% Calm Calm 1.0 mph1.6 kmh 29.82 in1009.8 mb 0.00 in0.0 mm 0.00 in/hr0.0 mm/hr 0.00 in0.0 mm
06:57 AM 35.7°F2.1°C 28.9°F-1.7°C 76% Calm Calm 1.0 mph1.6 kmh 29.82 in1009.8 mb 0.00 in0.0 mm 0.00 in/hr0.0 mm/hr 0.00 in0.0 mm
07:02 AM 35.9°F2.2°C 29.1°F-1.6°C 76% Calm Calm -- 29.82 in1009.8 mb 0.00 in0.0 mm 0.00 in/hr0.0 mm/hr 0.00 in0.0 mm
07:07 AM 36.2°F2.3°C 29.4°F-1.4°C 76% Calm Calm 2.0 mph3.2 kmh 29.82 in1009.8 mb 0.00 in0.0 mm 0.00 in/hr0.0 mm/hr 0.00 in0.0 mm
07:12 AM 36.7°F2.6°C 29.6°F-1.3°C 75% 1.9 mph ENE3.1 kmh ENE 3.0 mph4.8 kmh 29.82 in1009.8 mb 0.00 in0.0 mm 0.00 in/hr0.0 mm/hr 0.00 in0.0 mm
07:17 AM 36.9°F2.7°C 29.8°F-1.2°C 75% 2.5 mph NE4.0 kmh NE 4.0 mph6.4 kmh 29.82 in1009.8 mb 0.00 in0.0 mm 0.00 in/hr0.0 mm/hr 0.00 in0.0 mm
07:22 AM 37.4°F3.0°C 29.9°F-1.2°C 74% 2.2 mph NE3.5 kmh NE 4.0 mph6.4 kmh 29.82 in1009.8 mb 0.00 in0.0 mm 0.00 in/hr0.0 mm/hr 0.00 in0.0 mm
07:27 AM 37.7°F3.2°C 30.2°F-1.0°C 74% 3.4 mph NNE5.5 kmh NNE 5.0 mph8.0 kmh 29.81 in1009.5 mb 0.00 in0.0 mm 0.00 in/hr0.0 mm/hr 0.00 in0.0 mm
07:32 AM 38.2°F3.4°C 30.4°F-0.9°C 73% 1.9 mph E3.1 kmh E 5.0 mph8.0 kmh 29.81 in1009.5 mb 0.00 in0.0 mm 0.00 in/hr0.0 mm/hr 0.00 in0.0 mm
07:37 AM 38.7°F3.7°C 30.5°F-0.8°C 72% 1.6 mph ENE2.6 kmh ENE 5.0 mph8.0 kmh 29.81 in1009.5 mb 0.00 in0.0 mm 0.00 in/hr0.0 mm/hr 0.00 in0.0 mm
07:42 AM 39.2°F4.0°C 31.0°F-0.6°C 72% 1.1 mph NE1.8 kmh NE 3.0 mph4.8 kmh 29.81 in1009.5 mb 0.00 in0.0 mm 0.00 in/hr0.0 mm/hr 0.00 in0.0 mm
07:47 AM 39.8°F4.3°C 30.9°F-0.6°C 70% 2.3 mph NE3.7 kmh NE 4.0 mph6.4 kmh 29.81 in1009.5 mb 0.00 in0.0 mm 0.00 in/hr0.0 mm/hr 0.00 in0.0 mm
07:52 AM 40.1°F4.5°C 32.2°F0.1°C 73% 3.1 mph NNE5.0 kmh NNE 4.0 mph6.4 kmh 29.81 in1009.5 mb 0.00 in0.0 mm 0.00 in/hr0.0 mm/hr 0.00 in0.0 mm
07:57 AM 40.3°F4.6°C 32.7°F0.4°C 74% 2.0 mph NNE3.2 kmh NNE 5.0 mph8.0 kmh 29.80 in1009.1 mb 0.00 in0.0 mm 0.00 in/hr0.0 mm/hr 0.00 in0.0 mm
08:02 AM 40.8°F4.9°C 33.5°F0.8°C 75% 2.0 mph N3.2 kmh N 5.0 mph8.0 kmh 29.80 in1009.1 mb 0.00 in0.0 mm 0.00 in/hr0.0 mm/hr 0.00 in0.0 mm
08:07 AM 41.2°F5.1°C 33.6°F0.9°C 74% 4.7 mph N7.6 kmh N 7.0 mph11.3 kmh 29.80 in1009.1 mb 0.00 in0.0 mm 0.00 in/hr0.0 mm/hr 0.00 in0.0 mm
08:12 AM 41.5°F5.3°C 33.6°F0.9°C 73% 1.3 mph NNE2.1 kmh NNE 7.0 mph11.3 kmh 29.80 in1009.1 mb 0.00 in0.0 mm 0.00 in/hr0.0 mm/hr 0.00 in0.0 mm
08:18 AM 41.9°F5.5°C 33.6°F0.9°C 72% 2.7 mph NNE4.3 kmh NNE 5.0 mph8.0 kmh 29.80 in1009.1 mb 0.00 in0.0 mm 0.00 in/hr0.0 mm/hr 0.00 in0.0 mm
08:22 AM 42.2°F5.7°C 33.9°F1.1°C 72% 2.5 mph NNE4.0 kmh NNE 5.0 mph8.0 kmh 29.80 in1009.1 mb 0.00 in0.0 mm 0.00 in/hr0.0 mm/hr 0.00 in0.0 mm
08:27 AM 42.5°F5.8°C 33.8°F1.0°C 71% 2.8 mph NNE4.5 kmh NNE 5.0 mph8.0 kmh 29.81 in1009.5 mb 0.00 in0.0 mm 0.00 in/hr0.0 mm/hr 0.00 in0.0 mm
08:33 AM 42.9°F6.1°C 33.9°F1.1°C 70% 1.5 mph N2.4 kmh N 4.0 mph6.4 kmh 29.81 in1009.5 mb 0.00 in0.0 mm 0.00 in/hr0.0 mm/hr 0.00 in0.0 mm
08:38 AM 43.2°F6.2°C 33.8°F1.0°C 69% 1.9 mph N3.1 kmh N 4.0 mph6.4 kmh 29.81 in1009.5 mb 0.00 in0.0 mm 0.00 in/hr0.0 mm/hr 0.00 in0.0 mm
08:43 AM 43.7°F6.5°C 34.3°F1.3°C 69% 2.1 mph NNE3.4 kmh NNE 5.0 mph8.0 kmh 29.81 in1009.5 mb 0.00 in0.0 mm 0.00 in/hr0.0 mm/hr 0.00 in0.0 mm
08:48 AM 44.1°F6.7°C 34.7°F1.5°C 69% 4.2 mph NNE6.8 kmh NNE 6.0 mph9.7 kmh 29.80 in1009.1 mb 0.00 in0.0 mm 0.00 in/hr0.0 mm/hr 0.00 in0.0 mm
08:53 AM 44.6°F7.0°C 34.8°F1.6°C 68% 1.6 mph N2.6 kmh N 6.0 mph9.7 kmh 29.80 in1009.1 mb 0.00 in0.0 mm 0.00 in/hr0.0 mm/hr 0.00 in0.0 mm
08:58 AM 45.2°F7.3°C 35.4°F1.9°C 68% 2.9 mph N4.7 kmh N 7.0 mph11.3 kmh 29.81 in1009.5 mb 0.00 in0.0 mm 0.00 in/hr0.0 mm/hr 0.00 in0.0 mm
09:03 AM 45.4°F7.4°C 35.2°F1.8°C 67% 1.0 mph N1.6 kmh N 7.0 mph11.3 kmh 29.80 in1009.1 mb 0.00 in0.0 mm 0.00 in/hr0.0 mm/hr 0.00 in0.0 mm
09:08 AM 45.4°F7.4°C 35.5°F1.9°C 68% 3.2 mph N5.1 kmh N 5.0 mph8.0 kmh 29.80 in1009.1 mb 0.00 in0.0 mm 0.00 in/hr0.0 mm/hr 0.00 in0.0 mm
09:13 AM 45.7°F7.6°C 35.1°F1.7°C 66% 1.8 mph N2.9 kmh N 5.0 mph8.0 kmh 29.81 in1009.5 mb 0.00 in0.0 mm 0.00 in/hr0.0 mm/hr 0.00 in0.0 mm
09:18 AM 46.2°F7.9°C 35.2°F1.8°C 65% 2.5 mph NE4.0 kmh NE 4.0 mph6.4 kmh 29.80 in1009.1 mb 0.00 in0.0 mm 0.00 in/hr0.0 mm/hr 0.00 in0.0 mm
09:23 AM 46.6°F8.1°C 34.8°F1.6°C 63% 2.5 mph NNE4.0 kmh NNE 4.0 mph6.4 kmh 29.80 in1009.1 mb 0.00 in0.0 mm 0.00 in/hr0.0 mm/hr 0.00 in0.0 mm
09:28 AM 47.0°F8.3°C 35.9°F2.2°C 65% 1.0 mph NNE1.6 kmh NNE 4.0 mph6.4 kmh 29.80 in1009.1 mb 0.00 in0.0 mm 0.00 in/hr0.0 mm/hr 0.00 in0.0 mm
09:33 AM 47.5°F8.6°C 35.2°F1.8°C 62% 1.8 mph NNE2.9 kmh NNE 5.0 mph8.0 kmh 29.80 in1009.1 mb 0.00 in0.0 mm 0.00 in/hr0.0 mm/hr 0.00 in0.0 mm
09:38 AM 47.4°F8.6°C 36.3°F2.4°C 65% 2.0 mph N3.2 kmh N 6.0 mph9.7 kmh 29.80 in1009.1 mb 0.00 in0.0 mm 0.00 in/hr0.0 mm/hr 0.00 in0.0 mm
09:43 AM 47.3°F8.5°C 35.4°F1.9°C 63% 1.2 mph N1.9 kmh N 6.0 mph9.7 kmh 29.80 in1009.1 mb 0.00 in0.0 mm 0.00 in/hr0.0 mm/hr 0.00 in0.0 mm
09:48 AM 47.2°F8.4°C 35.3°F1.8°C 63% 1.0 mph N1.6 kmh N 4.0 mph6.4 kmh 29.80 in1009.1 mb 0.00 in0.0 mm 0.00 in/hr0.0 mm/hr 0.00 in0.0 mm
09:53 AM 47.3°F8.5°C 35.0°F1.7°C 62% 1.6 mph N2.6 kmh N 3.0 mph4.8 kmh 29.80 in1009.1 mb 0.00 in0.0 mm 0.00 in/hr0.0 mm/hr 0.00 in0.0 mm
09:58 AM 47.4°F8.6°C 35.1°F1.7°C 62% 1.0 mph 1.6 kmh 3.0 mph4.8 kmh 29.80 in1009.1 mb 0.00 in0.0 mm 0.00 in/hr0.0 mm/hr 0.00 in0.0 mm
10:03 AM 48.0°F8.9°C 36.1°F2.3°C 63% 1.5 mph 2.4 kmh 2.0 mph3.2 kmh 29.80 in1009.1 mb 0.00 in0.0 mm 0.00 in/hr0.0 mm/hr 0.00 in0.0 mm
10:08 AM 48.3°F9.1°C 35.6°F2.0°C 61% 1.0 mph NW1.6 kmh NW 3.0 mph4.8 kmh 29.80 in1009.1 mb 0.00 in0.0 mm 0.00 in/hr0.0 mm/hr 0.00 in0.0 mm
10:13 AM 48.6°F9.2°C 36.3°F2.4°C 62% 1.6 mph NW2.6 kmh NW 3.0 mph4.8 kmh 29.80 in1009.1 mb 0.00 in0.0 mm 0.00 in/hr0.0 mm/hr 0.00 in0.0 mm
10:18 AM 48.9°F9.4°C 36.1°F2.3°C 61% 2.6 mph NW4.2 kmh NW 4.0 mph6.4 kmh 29.79 in1008.8 mb 0.00 in0.0 mm 0.00 in/hr0.0 mm/hr 0.00 in0.0 mm
10:23 AM 48.9°F9.4°C 35.7°F2.1°C 60% 2.8 mph NNW4.5 kmh NNW 4.0 mph6.4 kmh 29.79 in1008.8 mb 0.00 in0.0 mm 0.00 in/hr0.0 mm/hr 0.00 in0.0 mm
10:28 AM 49.0°F9.4°C 35.8°F2.1°C 60% 1.8 mph 2.9 kmh 4.0 mph6.4 kmh 29.79 in1008.8 mb 0.00 in0.0 mm 0.00 in/hr0.0 mm/hr 0.00 in0.0 mm
10:33 AM 49.0°F9.4°C 35.8°F2.1°C 60% 1.0 mph 1.6 kmh 3.0 mph4.8 kmh 29.79 in1008.8 mb 0.00 in0.0 mm 0.00 in/hr0.0 mm/hr 0.00 in0.0 mm
10:38 AM 49.1°F9.5°C 35.9°F2.2°C 60% Calm Calm 3.0 mph4.8 kmh 29.79 in1008.8 mb 0.00 in0.0 mm 0.00 in/hr0.0 mm/hr 0.00 in0.0 mm
10:43 AM 49.1°F9.5°C 35.9°F2.2°C 60% 1.4 mph 2.3 kmh 3.0 mph4.8 kmh 29.79 in1008.8 mb 0.00 in0.0 mm 0.00 in/hr0.0 mm/hr 0.00 in0.0 mm
10:48 AM 48.9°F9.4°C 35.3°F1.8°C 59% 2.9 mph NNW4.7 kmh NNW 4.0 mph6.4 kmh 29.79 in1008.8 mb 0.00 in0.0 mm 0.00 in/hr0.0 mm/hr 0.00 in0.0 mm
10:53 AM 49.1°F9.5°C 35.5°F1.9°C 59% 1.2 mph NW1.9 kmh NW 4.0 mph6.4 kmh 29.78 in1008.5 mb 0.00 in0.0 mm 0.00 in/hr0.0 mm/hr 0.00 in0.0 mm
10:58 AM 49.3°F9.6°C 35.7°F2.1°C 59% 1.0 mph NW1.6 kmh NW 4.0 mph6.4 kmh 29.78 in1008.5 mb 0.00 in0.0 mm 0.00 in/hr0.0 mm/hr 0.00 in0.0 mm
11:03 AM 49.7°F9.8°C 35.1°F1.7°C 57% 1.4 mph N2.3 kmh N 4.0 mph6.4 kmh 29.78 in1008.5 mb 0.00 in0.0 mm 0.00 in/hr0.0 mm/hr 0.00 in0.0 mm
11:08 AM 49.7°F9.8°C 35.1°F1.7°C 57% Calm Calm 4.0 mph6.4 kmh 29.78 in1008.5 mb 0.00 in0.0 mm 0.00 in/hr0.0 mm/hr 0.00 in0.0 mm
11:13 AM 50.0°F10.0°C 35.4°F1.9°C 57% 4.5 mph NNE7.2 kmh NNE 6.0 mph9.7 kmh 29.78 in1008.5 mb 0.00 in0.0 mm 0.00 in/hr0.0 mm/hr 0.00 in0.0 mm
11:18 AM 50.4°F10.2°C 35.8°F2.1°C 57% 2.2 mph NE3.5 kmh NE 6.0 mph9.7 kmh 29.78 in1008.5 mb 0.00 in0.0 mm 0.00 in/hr0.0 mm/hr 0.00 in0.0 mm
11:23 AM 50.8°F10.4°C 35.3°F1.8°C 55% 1.7 mph NE2.7 kmh NE 5.0 mph8.0 kmh 29.78 in1008.5 mb 0.00 in0.0 mm 0.00 in/hr0.0 mm/hr 0.00 in0.0 mm
11:28 AM 51.3°F10.7°C 35.7°F2.1°C 55% 1.8 mph NE2.9 kmh NE 5.0 mph8.0 kmh 29.77 in1008.1 mb 0.00 in0.0 mm 0.00 in/hr0.0 mm/hr 0.00 in0.0 mm
11:33 AM 51.8°F11.0°C 36.2°F2.3°C 55% 5.2 mph N8.4 kmh N 7.0 mph11.3 kmh 29.77 in1008.1 mb 0.00 in0.0 mm 0.00 in/hr0.0 mm/hr 0.00 in0.0 mm
11:38 AM 52.4°F11.3°C 35.3°F1.8°C 52% 5.1 mph NNE8.2 kmh NNE 8.0 mph12.9 kmh 29.77 in1008.1 mb 0.00 in0.0 mm 0.00 in/hr0.0 mm/hr 0.00 in0.0 mm
11:43 AM 52.4°F11.3°C 36.3°F2.4°C 54% 1.7 mph N2.7 kmh N 8.0 mph12.9 kmh 29.76 in1007.8 mb 0.00 in0.0 mm 0.00 in/hr0.0 mm/hr 0.00 in0.0 mm
11:48 AM 52.7°F11.5°C 35.1°F1.7°C 51% 3.1 mph NE5.0 kmh NE 7.0 mph11.3 kmh 29.76 in1007.8 mb 0.00 in0.0 mm 0.00 in/hr0.0 mm/hr 0.00 in0.0 mm
11:53 AM 52.5°F11.4°C 35.4°F1.9°C 52% 3.6 mph NE5.8 kmh NE 6.0 mph9.7 kmh 29.76 in1007.8 mb 0.00 in0.0 mm 0.00 in/hr0.0 mm/hr 0.00 in0.0 mm
11:59 AM 52.5°F11.4°C 34.4°F1.3°C 50% 2.7 mph NE4.3 kmh NE 9.0 mph14.5 kmh 29.76 in1007.8 mb 0.00 in0.0 mm 0.00 in/hr0.0 mm/hr 0.00 in0.0 mm
12:03 PM 52.7°F11.5°C 35.6°F2.0°C 52% 2.6 mph ESE4.2 kmh ESE 9.0 mph14.5 kmh 29.76 in1007.8 mb 0.00 in0.0 mm 0.00 in/hr0.0 mm/hr 0.00 in0.0 mm
12:09 PM 52.4°F11.3°C 33.8°F1.0°C 49% 3.6 mph ENE5.8 kmh ENE 7.0 mph11.3 kmh 29.76 in1007.8 mb 0.00 in0.0 mm 0.00 in/hr0.0 mm/hr 0.00 in0.0 mm
12:14 PM 52.3°F11.3°C 34.2°F1.2°C 50% 2.7 mph E4.3 kmh E 7.0 mph11.3 kmh 29.76 in1007.8 mb 0.00 in0.0 mm 0.00 in/hr0.0 mm/hr 0.00 in0.0 mm
12:19 PM 52.6°F11.4°C 35.5°F1.9°C 52% 3.4 mph ESE5.5 kmh ESE 5.0 mph8.0 kmh 29.75 in1007.5 mb 0.00 in0.0 mm 0.00 in/hr0.0 mm/hr 0.00 in0.0 mm
12:24 PM 53.3°F11.8°C 34.1°F1.2°C 48% 3.0 mph NE4.8 kmh NE 6.0 mph9.7 kmh 29.75 in1007.5 mb 0.00 in0.0 mm 0.00 in/hr0.0 mm/hr 0.00 in0.0 mm
12:29 PM 53.5°F11.9°C 34.8°F1.6°C 49% 1.8 mph SE2.9 kmh SE 6.0 mph9.7 kmh 29.75 in1007.5 mb 0.00 in0.0 mm 0.00 in/hr0.0 mm/hr 0.00 in0.0 mm
12:34 PM 53.7°F12.1°C 34.4°F1.3°C 48% 3.2 mph N5.1 kmh N 8.0 mph12.9 kmh 29.75 in1007.5 mb 0.00 in0.0 mm 0.00 in/hr0.0 mm/hr 0.00 in0.0 mm
12:39 PM 54.1°F12.3°C 34.2°F1.2°C 47% 3.1 mph E5.0 kmh E 8.0 mph12.9 kmh 29.75 in1007.5 mb 0.00 in0.0 mm 0.00 in/hr0.0 mm/hr 0.00 in0.0 mm
12:44 PM 54.2°F12.3°C 33.2°F0.7°C 45% 2.9 mph ENE4.7 kmh ENE 7.0 mph11.3 kmh 29.75 in1007.5 mb 0.00 in0.0 mm 0.00 in/hr0.0 mm/hr 0.00 in0.0 mm
12:49 PM 54.1°F12.3°C 34.2°F1.2°C 47% 6.5 mph E10.5 kmh E 9.0 mph14.5 kmh 29.75 in1007.5 mb 0.00 in0.0 mm 0.00 in/hr0.0 mm/hr 0.00 in0.0 mm
12:54 PM 54.1°F12.3°C 33.1°F0.6°C 45% 2.8 mph ENE4.5 kmh ENE 9.0 mph14.5 kmh 29.74 in1007.1 mb 0.00 in0.0 mm 0.00 in/hr0.0 mm/hr 0.00 in0.0 mm
12:59 PM 54.2°F12.3°C 33.2°F0.7°C 45% 4.3 mph E6.9 kmh E 9.0 mph14.5 kmh 29.75 in1007.5 mb 0.00 in0.0 mm 0.00 in/hr0.0 mm/hr 0.00 in0.0 mm
01:04 PM 54.2°F12.3°C 33.2°F0.7°C 45% 6.7 mph ESE10.8 kmh ESE 9.0 mph14.5 kmh 29.74 in1007.1 mb 0.00 in0.0 mm 0.00 in/hr0.0 mm/hr 0.00 in0.0 mm
01:09 PM 54.4°F12.4°C 32.8°F0.4°C 44% 4.5 mph E7.2 kmh E 10.0 mph16.1 kmh 29.74 in1007.1 mb 0.00 in0.0 mm 0.00 in/hr0.0 mm/hr 0.00 in0.0 mm
01:14 PM 54.1°F12.3°C 33.1°F0.6°C 45% 4.4 mph ESE7.1 kmh ESE 10.0 mph16.1 kmh 29.74 in1007.1 mb 0.00 in0.0 mm 0.00 in/hr0.0 mm/hr 0.00 in0.0 mm
01:19 PM 53.9°F12.2°C 32.4°F0.2°C 44% 5.1 mph E8.2 kmh E 7.0 mph11.3 kmh 29.74 in1007.1 mb 0.00 in0.0 mm 0.00 in/hr0.0 mm/hr 0.00 in0.0 mm
01:24 PM 53.5°F11.9°C 31.4°F-0.3°C 43% 3.0 mph ENE4.8 kmh ENE 10.0 mph16.1 kmh 29.73 in1006.8 mb 0.00 in0.0 mm 0.00 in/hr0.0 mm/hr 0.00 in0.0 mm
01:29 PM 53.6°F12.0°C 32.1°F0.1°C 44% 2.1 mph ENE3.4 kmh ENE 10.0 mph16.1 kmh 29.73 in1006.8 mb 0.00 in0.0 mm 0.00 in/hr0.0 mm/hr 0.00 in0.0 mm
01:34 PM 53.8°F12.1°C 31.7°F-0.2°C 43% 2.4 mph NE3.9 kmh NE 10.0 mph16.1 kmh 29.73 in1006.8 mb 0.00 in0.0 mm 0.00 in/hr0.0 mm/hr 0.00 in0.0 mm
01:39 PM 53.6°F12.0°C 29.7°F-1.3°C 40% 6.3 mph NE10.1 kmh NE 10.0 mph16.1 kmh 29.73 in1006.8 mb 0.00 in0.0 mm 0.00 in/hr0.0 mm/hr 0.00 in0.0 mm
01:44 PM 53.5°F11.9°C 29.6°F-1.3°C 40% 4.6 mph NE7.4 kmh NE 10.0 mph16.1 kmh 29.73 in1006.8 mb 0.00 in0.0 mm 0.00 in/hr0.0 mm/hr 0.00 in0.0 mm
01:49 PM 53.4°F11.9°C 31.3°F-0.4°C 43% 2.6 mph ENE4.2 kmh ENE 8.0 mph12.9 kmh 29.73 in1006.8 mb 0.00 in0.0 mm 0.00 in/hr0.0 mm/hr 0.00 in0.0 mm
01:54 PM 53.2°F11.8°C 29.3°F-1.5°C 40% 5.3 mph NE8.5 kmh NE 10.0 mph16.1 kmh 29.73 in1006.8 mb 0.00 in0.0 mm 0.00 in/hr0.0 mm/hr 0.00 in0.0 mm
01:59 PM 53.0°F11.7°C 29.1°F-1.6°C 40% 3.3 mph NE5.3 kmh NE 10.0 mph16.1 kmh 29.73 in1006.8 mb 0.00 in0.0 mm 0.00 in/hr0.0 mm/hr 0.00 in0.0 mm
02:04 PM 53.2°F11.8°C 29.3°F-1.5°C 40% 3.8 mph E6.1 kmh E 6.0 mph9.7 kmh 29.73 in1006.8 mb 0.00 in0.0 mm 0.00 in/hr0.0 mm/hr 0.00 in0.0 mm
02:09 PM 53.7°F12.1°C 30.4°F-0.9°C 41% 3.6 mph E5.8 kmh E 6.0 mph9.7 kmh 29.72 in1006.4 mb 0.00 in0.0 mm 0.00 in/hr0.0 mm/hr 0.00 in0.0 mm
02:14 PM 54.2°F12.3°C 28.3°F-2.1°C 37% 2.7 mph N4.3 kmh N 7.0 mph11.3 kmh 29.73 in1006.8 mb 0.00 in0.0 mm 0.00 in/hr0.0 mm/hr 0.00 in0.0 mm
02:20 PM 54.1°F12.3°C 28.2°F-2.1°C 37% 4.0 mph NNE6.4 kmh NNE 7.0 mph11.3 kmh 29.73 in1006.8 mb 0.00 in0.0 mm 0.00 in/hr0.0 mm/hr 0.00 in0.0 mm
02:24 PM 54.2°F12.3°C 26.9°F-2.8°C 35% 3.3 mph NE5.3 kmh NE 7.0 mph11.3 kmh 29.72 in1006.4 mb 0.00 in0.0 mm 0.00 in/hr0.0 mm/hr 0.00 in0.0 mm
02:29 PM 54.3°F12.4°C 27.7°F-2.4°C 36% 1.2 mph NE1.9 kmh NE 7.0 mph11.3 kmh 29.72 in1006.4 mb 0.00 in0.0 mm 0.00 in/hr0.0 mm/hr 0.00 in0.0 mm
02:35 PM 54.2°F12.3°C 26.9°F-2.8°C 35% 4.9 mph N7.9 kmh N 9.0 mph14.5 kmh 29.72 in1006.4 mb 0.00 in0.0 mm 0.00 in/hr0.0 mm/hr 0.00 in0.0 mm
02:40 PM 54.4°F12.4°C 28.4°F-2.0°C 37% 1.7 mph N2.7 kmh N 9.0 mph14.5 kmh 29.72 in1006.4 mb 0.00 in0.0 mm 0.00 in/hr0.0 mm/hr 0.00 in0.0 mm
02:45 PM 54.9°F12.7°C 28.9°F-1.7°C 37% 3.6 mph N5.8 kmh N 8.0 mph12.9 kmh 29.72 in1006.4 mb 0.00 in0.0 mm 0.00 in/hr0.0 mm/hr 0.00 in0.0 mm
02:50 PM 54.9°F12.7°C 28.2°F-2.1°C 36% 1.0 mph N1.6 kmh N 8.0 mph12.9 kmh 29.72 in1006.4 mb 0.00 in0.0 mm 0.00 in/hr0.0 mm/hr 0.00 in0.0 mm
02:55 PM 54.8°F12.7°C 28.1°F-2.2°C 36% 5.5 mph N8.9 kmh N 10.0 mph16.1 kmh 29.72 in1006.4 mb 0.00 in0.0 mm 0.00 in/hr0.0 mm/hr 0.00 in0.0 mm
03:00 PM 54.8°F12.7°C 26.0°F-3.3°C 33% 3.9 mph NE6.3 kmh NE 10.0 mph16.1 kmh 29.72 in1006.4 mb 0.00 in0.0 mm 0.00 in/hr0.0 mm/hr 0.00 in0.0 mm
03:05 PM 54.5°F12.5°C 27.9°F-2.3°C 36% 3.7 mph NE6.0 kmh NE 7.0 mph11.3 kmh 29.71 in1006.1 mb 0.00 in0.0 mm 0.00 in/hr0.0 mm/hr 0.00 in0.0 mm
03:10 PM 54.0°F12.2°C 26.7°F-2.9°C 35% 5.4 mph NE8.7 kmh NE 8.0 mph12.9 kmh 29.72 in1006.4 mb 0.00 in0.0 mm 0.00 in/hr0.0 mm/hr 0.00 in0.0 mm
03:15 PM 53.5°F11.9°C 27.0°F-2.8°C 36% 3.9 mph NE6.3 kmh NE 8.0 mph12.9 kmh 29.72 in1006.4 mb 0.00 in0.0 mm 0.00 in/hr0.0 mm/hr 0.00 in0.0 mm
03:20 PM 53.2°F11.8°C 27.4°F-2.6°C 37% 2.2 mph NE3.5 kmh NE 8.0 mph12.9 kmh 29.72 in1006.4 mb 0.00 in0.0 mm 0.00 in/hr0.0 mm/hr 0.00 in0.0 mm
03:25 PM 53.3°F11.8°C 26.8°F-2.9°C 36% 2.3 mph ENE3.7 kmh ENE 8.0 mph12.9 kmh 29.72 in1006.4 mb 0.00 in0.0 mm 0.00 in/hr0.0 mm/hr 0.00 in0.0 mm
03:30 PM 53.4°F11.9°C 28.9°F-1.7°C 39% 2.8 mph E4.5 kmh E 4.0 mph6.4 kmh 29.72 in1006.4 mb 0.00 in0.0 mm 0.00 in/hr0.0 mm/hr 0.00 in0.0 mm
03:35 PM 53.6°F12.0°C 27.7°F-2.4°C 37% 3.2 mph ENE5.1 kmh ENE 5.0 mph8.0 kmh 29.72 in1006.4 mb 0.00 in0.0 mm 0.00 in/hr0.0 mm/hr 0.00 in0.0 mm
03:40 PM 53.8°F12.1°C 27.9°F-2.3°C 37% 6.3 mph ESE10.1 kmh ESE 9.0 mph14.5 kmh 29.72 in1006.4 mb 0.00 in0.0 mm 0.00 in/hr0.0 mm/hr 0.00 in0.0 mm
03:45 PM 53.6°F12.0°C 29.7°F-1.3°C 40% 6.7 mph ESE10.8 kmh ESE 9.0 mph14.5 kmh 29.72 in1006.4 mb 0.00 in0.0 mm 0.00 in/hr0.0 mm/hr 0.00 in0.0 mm
03:50 PM 53.2°F11.8°C 29.3°F-1.5°C 40% 7.1 mph SE11.4 kmh SE 9.0 mph14.5 kmh 29.72 in1006.4 mb 0.00 in0.0 mm 0.00 in/hr0.0 mm/hr 0.00 in0.0 mm
03:55 PM 52.7°F11.5°C 30.7°F-0.7°C 43% 7.6 mph SE12.2 kmh SE 12.0 mph19.3 kmh 29.72 in1006.4 mb 0.00 in0.0 mm 0.00 in/hr0.0 mm/hr 0.00 in0.0 mm
04:00 PM 52.1°F11.2°C 31.3°F-0.4°C 45% 8.4 mph SE13.5 kmh SE 12.0 mph19.3 kmh 29.72 in1006.4 mb 0.00 in0.0 mm 0.00 in/hr0.0 mm/hr 0.00 in0.0 mm
04:05 PM 51.5°F10.8°C 30.7°F-0.7°C 45% 7.9 mph SE12.7 kmh SE 14.0 mph22.5 kmh 29.72 in1006.4 mb 0.00 in0.0 mm 0.00 in/hr0.0 mm/hr 0.00 in0.0 mm
04:11 PM 51.2°F10.7°C 29.9°F-1.2°C 44% 3.9 mph E6.3 kmh E 14.0 mph22.5 kmh 29.73 in1006.8 mb 0.00 in0.0 mm 0.00 in/hr0.0 mm/hr 0.00 in0.0 mm
04:16 PM 50.9°F10.5°C 29.1°F-1.6°C 43% 6.4 mph NE10.3 kmh NE 11.0 mph17.7 kmh 29.73 in1006.8 mb 0.00 in0.0 mm 0.00 in/hr0.0 mm/hr 0.00 in0.0 mm
04:20 PM 50.7°F10.4°C 29.4°F-1.4°C 44% 4.2 mph NE6.8 kmh NE 11.0 mph17.7 kmh 29.73 in1006.8 mb 0.00 in0.0 mm 0.00 in/hr0.0 mm/hr 0.00 in0.0 mm
04:26 PM 50.4°F10.2°C 29.2°F-1.6°C 44% 3.4 mph N5.5 kmh N 8.0 mph12.9 kmh 29.73 in1006.8 mb 0.00 in0.0 mm 0.00 in/hr0.0 mm/hr 0.00 in0.0 mm
04:31 PM 50.3°F10.2°C 29.1°F-1.6°C 44% 3.5 mph NNE5.6 kmh NNE 8.0 mph12.9 kmh 29.73 in1006.8 mb 0.00 in0.0 mm 0.00 in/hr0.0 mm/hr 0.00 in0.0 mm
04:36 PM 50.6°F10.3°C 29.4°F-1.4°C 44% 3.4 mph N5.5 kmh N 7.0 mph11.3 kmh 29.73 in1006.8 mb 0.00 in0.0 mm 0.00 in/hr0.0 mm/hr 0.00 in0.0 mm
04:41 PM 50.8°F10.4°C 29.0°F-1.7°C 43% 3.5 mph NNE5.6 kmh NNE 6.0 mph9.7 kmh 29.73 in1006.8 mb 0.00 in0.0 mm 0.00 in/hr0.0 mm/hr 0.00 in0.0 mm
04:46 PM 51.0°F10.6°C 29.7°F-1.3°C 44% 1.2 mph NNE1.9 kmh NNE 6.0 mph9.7 kmh 29.72 in1006.4 mb 0.00 in0.0 mm 0.00 in/hr0.0 mm/hr 0.00 in0.0 mm
04:51 PM 51.0°F10.6°C 29.7°F-1.3°C 44% 3.1 mph N5.0 kmh N 6.0 mph9.7 kmh 29.72 in1006.4 mb 0.00 in0.0 mm 0.00 in/hr0.0 mm/hr 0.00 in0.0 mm
04:56 PM 50.9°F10.5°C 30.2°F-1.0°C 45% 2.1 mph NNE3.4 kmh NNE 7.0 mph11.3 kmh 29.73 in1006.8 mb 0.00 in0.0 mm 0.00 in/hr0.0 mm/hr 0.00 in0.0 mm
05:01 PM 51.0°F10.6°C 29.1°F-1.6°C 43% 4.3 mph N6.9 kmh N 8.0 mph12.9 kmh 29.72 in1006.4 mb 0.00 in0.0 mm 0.00 in/hr0.0 mm/hr 0.00 in0.0 mm
05:06 PM 51.2°F10.7°C 30.5°F-0.8°C 45% 2.1 mph N3.4 kmh N 8.0 mph12.9 kmh 29.72 in1006.4 mb 0.00 in0.0 mm 0.00 in/hr0.0 mm/hr 0.00 in0.0 mm
05:11 PM 51.2°F10.7°C 30.5°F-0.8°C 45% 1.8 mph N2.9 kmh N 7.0 mph11.3 kmh 29.72 in1006.4 mb 0.00 in0.0 mm 0.00 in/hr0.0 mm/hr 0.00 in0.0 mm
05:16 PM 51.1°F10.6°C 30.4°F-0.9°C 45% 1.5 mph NNW2.4 kmh NNW 8.0 mph12.9 kmh 29.72 in1006.4 mb 0.00 in0.0 mm 0.00 in/hr0.0 mm/hr 0.00 in0.0 mm
05:21 PM 50.9°F10.5°C 30.2°F-1.0°C 45% 3.8 mph N6.1 kmh N 8.0 mph12.9 kmh 29.73 in1006.8 mb 0.00 in0.0 mm 0.00 in/hr0.0 mm/hr 0.00 in0.0 mm
05:26 PM 50.6°F10.3°C 29.9°F-1.2°C 45% 3.1 mph N5.0 kmh N 7.0 mph11.3 kmh 29.72 in1006.4 mb 0.00 in0.0 mm 0.00 in/hr0.0 mm/hr 0.00 in0.0 mm
05:31 PM 50.4°F10.2°C 29.7°F-1.3°C 45% 2.7 mph N4.3 kmh N 7.0 mph11.3 kmh 29.72 in1006.4 mb 0.00 in0.0 mm 0.00 in/hr0.0 mm/hr 0.00 in0.0 mm
05:36 PM 50.2°F10.1°C 30.1°F-1.1°C 46% 2.3 mph N3.7 kmh N 7.0 mph11.3 kmh 29.73 in1006.8 mb 0.00 in0.0 mm 0.00 in/hr0.0 mm/hr 0.00 in0.0 mm
05:41 PM 50.1°F10.1°C 30.0°F-1.1°C 46% Calm Calm 7.0 mph11.3 kmh 29.73 in1006.8 mb 0.00 in0.0 mm 0.00 in/hr0.0 mm/hr 0.00 in0.0 mm
05:46 PM 49.9°F9.9°C 30.4°F-0.9°C 47% 1.9 mph NNW3.1 kmh NNW 6.0 mph9.7 kmh 29.73 in1006.8 mb 0.00 in0.0 mm 0.00 in/hr0.0 mm/hr 0.00 in0.0 mm
05:51 PM 49.7°F9.8°C 30.7°F-0.7°C 48% 1.4 mph NW2.3 kmh NW 6.0 mph9.7 kmh 29.73 in1006.8 mb 0.00 in0.0 mm 0.00 in/hr0.0 mm/hr 0.00 in0.0 mm
05:56 PM 49.4°F9.7°C 30.5°F-0.8°C 48% 1.3 mph NNW2.1 kmh NNW 3.0 mph4.8 kmh 29.73 in1006.8 mb 0.00 in0.0 mm 0.00 in/hr0.0 mm/hr 0.00 in0.0 mm
06:01 PM 49.2°F9.6°C 30.3°F-0.9°C 48% 1.3 mph N2.1 kmh N 3.0 mph4.8 kmh 29.73 in1006.8 mb 0.00 in0.0 mm 0.00 in/hr0.0 mm/hr 0.00 in0.0 mm
06:06 PM 49.0°F9.4°C 30.6°F-0.8°C 49% 2.0 mph N3.2 kmh N 3.0 mph4.8 kmh 29.73 in1006.8 mb 0.00 in0.0 mm 0.00 in/hr0.0 mm/hr 0.00 in0.0 mm
06:11 PM 48.7°F9.3°C 30.9°F-0.6°C 50% 1.6 mph N2.6 kmh N 3.0 mph4.8 kmh 29.73 in1006.8 mb 0.00 in0.0 mm 0.00 in/hr0.0 mm/hr 0.00 in0.0 mm
06:16 PM 48.5°F9.2°C 30.2°F-1.0°C 49% 1.1 mph NNW1.8 kmh NNW 3.0 mph4.8 kmh 29.73 in1006.8 mb 0.00 in0.0 mm 0.00 in/hr0.0 mm/hr 0.00 in0.0 mm
06:21 PM 48.3°F9.1°C 30.0°F-1.1°C 49% 2.4 mph NNW3.9 kmh NNW 3.0 mph4.8 kmh 29.73 in1006.8 mb 0.00 in0.0 mm 0.00 in/hr0.0 mm/hr 0.00 in0.0 mm
06:26 PM 48.0°F8.9°C 29.7°F-1.3°C 49% 1.1 mph NNW1.8 kmh NNW 3.0 mph4.8 kmh 29.73 in1006.8 mb 0.00 in0.0 mm 0.00 in/hr0.0 mm/hr 0.00 in0.0 mm
06:31 PM 47.6°F8.7°C 30.8°F-0.7°C 52% 1.3 mph NNW2.1 kmh NNW 3.0 mph4.8 kmh 29.73 in1006.8 mb 0.00 in0.0 mm 0.00 in/hr0.0 mm/hr 0.00 in0.0 mm
06:36 PM 47.2°F8.4°C 30.9°F-0.6°C 53% 2.4 mph S3.9 kmh S 4.0 mph6.4 kmh 29.73 in1006.8 mb 0.00 in0.0 mm 0.00 in/hr0.0 mm/hr 0.00 in0.0 mm
06:41 PM 46.9°F8.3°C 30.7°F-0.7°C 53% 2.9 mph S4.7 kmh S 4.0 mph6.4 kmh 29.73 in1006.8 mb 0.00 in0.0 mm 0.00 in/hr0.0 mm/hr 0.00 in0.0 mm
06:46 PM 46.5°F8.1°C 30.8°F-0.7°C 54% 3.1 mph S5.0 kmh S 4.0 mph6.4 kmh 29.73 in1006.8 mb 0.00 in0.0 mm 0.00 in/hr0.0 mm/hr 0.00 in0.0 mm
06:51 PM 46.3°F7.9°C 30.6°F-0.8°C 54% 1.0 mph S1.6 kmh S 5.0 mph8.0 kmh 29.74 in1007.1 mb 0.00 in0.0 mm 0.00 in/hr0.0 mm/hr 0.00 in0.0 mm
06:56 PM 46.1°F7.8°C 29.9°F-1.2°C 53% Calm Calm 5.0 mph8.0 kmh 29.73 in1006.8 mb 0.00 in0.0 mm 0.00 in/hr0.0 mm/hr 0.00 in0.0 mm
07:01 PM 46.1°F7.8°C 27.9°F-2.3°C 49% 2.0 mph E3.2 kmh E 6.0 mph9.7 kmh 29.73 in1006.8 mb 0.00 in0.0 mm 0.00 in/hr0.0 mm/hr 0.00 in0.0 mm
07:06 PM 46.0°F7.8°C 29.3°F-1.5°C 52% 2.2 mph E3.5 kmh E 6.0 mph9.7 kmh 29.74 in1007.1 mb 0.00 in0.0 mm 0.00 in/hr0.0 mm/hr 0.00 in0.0 mm
07:11 PM 45.9°F7.7°C 29.7°F-1.3°C 53% 3.2 mph SE5.1 kmh SE 5.0 mph8.0 kmh 29.74 in1007.1 mb 0.00 in0.0 mm 0.00 in/hr0.0 mm/hr 0.00 in0.0 mm
07:16 PM 45.7°F7.6°C 30.0°F-1.1°C 54% Calm Calm 5.0 mph8.0 kmh 29.74 in1007.1 mb 0.00 in0.0 mm 0.00 in/hr0.0 mm/hr 0.00 in0.0 mm
07:21 PM 45.6°F7.6°C 29.5°F-1.4°C 53% Calm Calm 2.0 mph3.2 kmh 29.74 in1007.1 mb 0.00 in0.0 mm 0.00 in/hr0.0 mm/hr 0.00 in0.0 mm
07:27 PM 45.4°F7.4°C 29.3°F-1.5°C 53% 1.3 mph SSE2.1 kmh SSE 2.0 mph3.2 kmh 29.74 in1007.1 mb 0.00 in0.0 mm 0.00 in/hr0.0 mm/hr 0.00 in0.0 mm
07:32 PM 45.3°F7.4°C 29.6°F-1.3°C 54% 1.7 mph WSW2.7 kmh WSW 3.0 mph4.8 kmh 29.75 in1007.5 mb 0.00 in0.0 mm 0.00 in/hr0.0 mm/hr 0.00 in0.0 mm
07:37 PM 45.1°F7.3°C 29.5°F-1.4°C 54% 1.3 mph WSW2.1 kmh WSW 3.0 mph4.8 kmh 29.75 in1007.5 mb 0.00 in0.0 mm 0.00 in/hr0.0 mm/hr 0.00 in0.0 mm
07:42 PM 45.0°F7.2°C 29.4°F-1.4°C 54% 1.7 mph WSW2.7 kmh WSW 3.0 mph4.8 kmh 29.75 in1007.5 mb 0.00 in0.0 mm 0.00 in/hr0.0 mm/hr 0.00 in0.0 mm
07:47 PM 45.0°F7.2°C 29.4°F-1.4°C 54% 1.8 mph WSW2.9 kmh WSW 4.0 mph6.4 kmh 29.75 in1007.5 mb 0.00 in0.0 mm 0.00 in/hr0.0 mm/hr 0.00 in0.0 mm
07:52 PM 45.0°F7.2°C 29.8°F-1.2°C 55% 1.6 mph W2.6 kmh W 4.0 mph6.4 kmh 29.75 in1007.5 mb 0.00 in0.0 mm 0.00 in/hr0.0 mm/hr 0.00 in0.0 mm
07:57 PM 45.1°F7.3°C 29.9°F-1.2°C 55% Calm Calm 4.0 mph6.4 kmh 29.76 in1007.8 mb 0.00 in0.0 mm 0.00 in/hr0.0 mm/hr 0.00 in0.0 mm
08:02 PM 45.1°F7.3°C 29.9°F-1.2°C 55% 2.2 mph W3.5 kmh W 3.0 mph4.8 kmh 29.76 in1007.8 mb 0.00 in0.0 mm 0.00 in/hr0.0 mm/hr 0.00 in0.0 mm
08:07 PM 44.9°F7.2°C 30.2°F-1.0°C 56% 1.6 mph W2.6 kmh W 3.0 mph4.8 kmh 29.76 in1007.8 mb 0.00 in0.0 mm 0.00 in/hr0.0 mm/hr 0.00 in0.0 mm
08:12 PM 44.8°F7.1°C 30.1°F-1.1°C 56% 2.0 mph W3.2 kmh W 3.0 mph4.8 kmh 29.76 in1007.8 mb 0.00 in0.0 mm 0.00 in/hr0.0 mm/hr 0.00 in0.0 mm
08:17 PM 44.8°F7.1°C 30.1°F-1.1°C 56% 2.3 mph SW3.7 kmh SW 4.0 mph6.4 kmh 29.76 in1007.8 mb 0.00 in0.0 mm 0.00 in/hr0.0 mm/hr 0.00 in0.0 mm
08:22 PM 44.6°F7.0°C 30.4°F-0.9°C 57% 1.4 mph SW2.3 kmh SW 4.0 mph6.4 kmh 29.76 in1007.8 mb 0.00 in0.0 mm 0.00 in/hr0.0 mm/hr 0.00 in0.0 mm
08:27 PM 44.5°F6.9°C 30.3°F-0.9°C 57% 1.0 mph SW1.6 kmh SW 4.0 mph6.4 kmh 29.76 in1007.8 mb 0.00 in0.0 mm 0.00 in/hr0.0 mm/hr 0.00 in0.0 mm
08:32 PM 44.4°F6.9°C 29.7°F-1.3°C 56% 2.0 mph WSW3.2 kmh WSW 3.0 mph4.8 kmh 29.76 in1007.8 mb 0.00 in0.0 mm 0.00 in/hr0.0 mm/hr 0.00 in0.0 mm
08:37 PM 44.3°F6.8°C 29.6°F-1.3°C 56% Calm Calm 3.0 mph4.8 kmh 29.76 in1007.8 mb 0.00 in0.0 mm 0.00 in/hr0.0 mm/hr 0.00 in0.0 mm
08:42 PM 44.2°F6.8°C 29.1°F-1.6°C 55% Calm Calm 1.0 mph1.6 kmh 29.76 in1007.8 mb 0.00 in0.0 mm 0.00 in/hr0.0 mm/hr 0.00 in0.0 mm
08:47 PM 44.1°F6.7°C 29.0°F-1.7°C 55% Calm Calm 1.0 mph1.6 kmh 29.76 in1007.8 mb 0.00 in0.0 mm 0.00 in/hr0.0 mm/hr 0.00 in0.0 mm
08:52 PM 44.0°F6.7°C 29.8°F-1.2°C 57% 1.2 mph WSW1.9 kmh WSW 2.0 mph3.2 kmh 29.76 in1007.8 mb 0.00 in0.0 mm 0.00 in/hr0.0 mm/hr 0.00 in0.0 mm
08:57 PM 43.8°F6.6°C 29.6°F-1.3°C 57% 1.0 mph SW1.6 kmh SW 3.0 mph4.8 kmh 29.76 in1007.8 mb 0.00 in0.0 mm 0.00 in/hr0.0 mm/hr 0.00 in0.0 mm
09:02 PM 43.7°F6.5°C 29.9°F-1.2°C 58% 1.0 mph SSW1.6 kmh SSW 3.0 mph4.8 kmh 29.76 in1007.8 mb 0.00 in0.0 mm 0.00 in/hr0.0 mm/hr 0.00 in0.0 mm
09:07 PM 43.6°F6.4°C 29.8°F-1.2°C 58% 1.5 mph SW2.4 kmh SW 3.0 mph4.8 kmh 29.76 in1007.8 mb 0.00 in0.0 mm 0.00 in/hr0.0 mm/hr 0.00 in0.0 mm
09:12 PM 43.5°F6.4°C 29.8°F-1.2°C 58% 1.0 mph SSW1.6 kmh SSW 2.0 mph3.2 kmh 29.76 in1007.8 mb 0.00 in0.0 mm 0.00 in/hr0.0 mm/hr 0.00 in0.0 mm
09:17 PM 43.4°F6.3°C 29.7°F-1.3°C 58% 1.6 mph SSW2.6 kmh SSW 3.0 mph4.8 kmh 29.76 in1007.8 mb 0.00 in0.0 mm 0.00 in/hr0.0 mm/hr 0.00 in0.0 mm
09:22 PM 43.3°F6.3°C 29.6°F-1.3°C 58% Calm Calm 3.0 mph4.8 kmh 29.76 in1007.8 mb 0.00 in0.0 mm 0.00 in/hr0.0 mm/hr 0.00 in0.0 mm
09:27 PM 43.2°F6.2°C 29.9°F-1.2°C 59% Calm Calm -- 29.76 in1007.8 mb 0.00 in0.0 mm 0.00 in/hr0.0 mm/hr 0.00 in0.0 mm
09:32 PM 43.2°F6.2°C 29.9°F-1.2°C 59% Calm Calm 1.0 mph1.6 kmh 29.76 in1007.8 mb 0.00 in0.0 mm 0.00 in/hr0.0 mm/hr 0.00 in0.0 mm
09:37 PM 43.0°F6.1°C 29.7°F-1.3°C 59% 1.5 mph SSW2.4 kmh SSW 2.0 mph3.2 kmh 29.76 in1007.8 mb 0.00 in0.0 mm 0.00 in/hr0.0 mm/hr 0.00 in0.0 mm
09:42 PM 43.0°F6.1°C 29.3°F-1.5°C 58% 1.1 mph SSW1.8 kmh SSW 2.0 mph3.2 kmh 29.76 in1007.8 mb 0.00 in0.0 mm 0.00 in/hr0.0 mm/hr 0.00 in0.0 mm
09:47 PM 42.9°F6.1°C 29.2°F-1.6°C 58% Calm Calm 2.0 mph3.2 kmh 29.76 in1007.8 mb 0.00 in0.0 mm 0.00 in/hr0.0 mm/hr 0.00 in0.0 mm
09:52 PM 42.8°F6.0°C 29.9°F-1.2°C 60% 2.0 mph SSW3.2 kmh SSW 3.0 mph4.8 kmh 29.76 in1007.8 mb 0.00 in0.0 mm 0.00 in/hr0.0 mm/hr 0.00 in0.0 mm
09:57 PM 42.7°F5.9°C 29.8°F-1.2°C 60% Calm Calm 3.0 mph4.8 kmh 29.76 in1007.8 mb 0.00 in0.0 mm 0.00 in/hr0.0 mm/hr 0.00 in0.0 mm
10:02 PM 42.5°F5.8°C 29.7°F-1.3°C 60% 1.1 mph SSW1.8 kmh SSW 3.0 mph4.8 kmh 29.76 in1007.8 mb 0.00 in0.0 mm 0.00 in/hr0.0 mm/hr 0.00 in0.0 mm
10:07 PM 42.4°F5.8°C 29.6°F-1.3°C 60% Calm Calm 2.0 mph3.2 kmh 29.77 in1008.1 mb 0.00 in0.0 mm 0.00 in/hr0.0 mm/hr 0.00 in0.0 mm
10:12 PM 42.3°F5.7°C 29.5°F-1.4°C 60% Calm Calm -- 29.77 in1008.1 mb 0.00 in0.0 mm 0.00 in/hr0.0 mm/hr 0.00 in0.0 mm
10:17 PM 42.2°F5.7°C 29.4°F-1.4°C 60% Calm Calm -- 29.77 in1008.1 mb 0.00 in0.0 mm 0.00 in/hr0.0 mm/hr 0.00 in0.0 mm
10:22 PM 42.1°F5.6°C 29.3°F-1.5°C 60% Calm Calm -- 29.77 in1008.1 mb 0.00 in0.0 mm 0.00 in/hr0.0 mm/hr 0.00 in0.0 mm
10:27 PM 42.1°F5.6°C 29.3°F-1.5°C 60% Calm Calm -- 29.77 in1008.1 mb 0.00 in0.0 mm 0.00 in/hr0.0 mm/hr 0.00 in0.0 mm
10:33 PM 42.0°F5.6°C 29.2°F-1.6°C 60% Calm Calm -- 29.77 in1008.1 mb 0.00 in0.0 mm 0.00 in/hr0.0 mm/hr 0.00 in0.0 mm
10:38 PM 42.0°F5.6°C 29.6°F-1.3°C 61% Calm Calm -- 29.77 in1008.1 mb 0.00 in0.0 mm 0.00 in/hr0.0 mm/hr 0.00 in0.0 mm
10:43 PM 41.9°F5.5°C 30.3°F-0.9°C 63% Calm Calm -- 29.77 in1008.1 mb 0.00 in0.0 mm 0.00 in/hr0.0 mm/hr 0.00 in0.0 mm
10:48 PM 41.9°F5.5°C 30.3°F-0.9°C 63% Calm Calm -- 29.77 in1008.1 mb 0.00 in0.0 mm 0.00 in/hr0.0 mm/hr 0.00 in0.0 mm
10:53 PM 41.8°F5.4°C 29.4°F-1.4°C 61% Calm Calm -- 29.77 in1008.1 mb 0.00 in0.0 mm 0.00 in/hr0.0 mm/hr 0.00 in0.0 mm
10:58 PM 41.7°F5.4°C 30.1°F-1.1°C 63% Calm Calm -- 29.77 in1008.1 mb 0.00 in0.0 mm 0.00 in/hr0.0 mm/hr 0.00 in0.0 mm
11:03 PM 41.7°F5.4°C 29.7°F-1.3°C 62% Calm Calm -- 29.78 in1008.5 mb 0.00 in0.0 mm 0.00 in/hr0.0 mm/hr 0.00 in0.0 mm
11:08 PM 41.7°F5.4°C 29.7°F-1.3°C 62% Calm Calm -- 29.78 in1008.5 mb 0.00 in0.0 mm 0.00 in/hr0.0 mm/hr 0.00 in0.0 mm
11:13 PM 41.7°F5.4°C 29.3°F-1.5°C 61% Calm Calm -- 29.78 in1008.5 mb 0.00 in0.0 mm 0.00 in/hr0.0 mm/hr 0.00 in0.0 mm
11:18 PM 41.7°F5.4°C 30.1°F-1.1°C 63% Calm Calm -- 29.78 in1008.5 mb 0.00 in0.0 mm 0.00 in/hr0.0 mm/hr 0.00 in0.0 mm
11:23 PM 41.7°F5.4°C 30.1°F-1.1°C 63% Calm Calm -- 29.78 in1008.5 mb 0.00 in0.0 mm 0.00 in/hr0.0 mm/hr 0.00 in0.0 mm
11:28 PM 41.7°F5.4°C 30.1°F-1.1°C 63% Calm Calm -- 29.78 in1008.5 mb 0.00 in0.0 mm 0.00 in/hr0.0 mm/hr 0.00 in0.0 mm
11:33 PM 41.7°F5.4°C 30.1°F-1.1°C 63% Calm Calm 1.0 mph1.6 kmh 29.78 in1008.5 mb 0.00 in0.0 mm 0.00 in/hr0.0 mm/hr 0.00 in0.0 mm
11:38 PM 41.7°F5.4°C 29.7°F-1.3°C 62% Calm Calm 1.0 mph1.6 kmh 29.78 in1008.5 mb 0.00 in0.0 mm 0.00 in/hr0.0 mm/hr 0.00 in0.0 mm
11:43 PM 41.7°F5.4°C 29.3°F-1.5°C 61% Calm Calm -- 29.78 in1008.5 mb 0.00 in0.0 mm 0.00 in/hr0.0 mm/hr 0.00 in0.0 mm
11:48 PM 41.7°F5.4°C 29.3°F-1.5°C 61% Calm Calm -- 29.78 in1008.5 mb 0.00 in0.0 mm 0.00 in/hr0.0 mm/hr 0.00 in0.0 mm
11:53 PM 41.7°F5.4°C 29.3°F-1.5°C 61% Calm Calm -- 29.78 in1008.5 mb 0.00 in0.0 mm 0.00 in/hr0.0 mm/hr 0.00 in0.0 mm
11:58 PM 41.8°F5.4°C 29.4°F-1.4°C 61% Calm Calm -- 29.78 in1008.5 mb 0.00 in0.0 mm 0.00 in/hr0.0 mm/hr 0.00 in0.0 mm